sensor_id;sensor_type;location;lat;lon;timestamp;pressure;altitude;pressure_sealevel;temperature;humidity
23619;BME280;18207;32.078;34.818;2023-02-17T00:00:40;102138.00;;;19.49;39.04
23619;BME280;18207;32.078;34.818;2023-02-17T00:03:11;102134.69;;;19.47;38.97
23619;BME280;18207;32.078;34.818;2023-02-17T00:05:41;102140.84;;;19.44;38.55
23619;BME280;18207;32.078;34.818;2023-02-17T00:08:13;102136.41;;;19.43;38.92
23619;BME280;18207;32.078;34.818;2023-02-17T00:10:42;102142.28;;;19.41;38.84
23619;BME280;18207;32.078;34.818;2023-02-17T00:13:13;102139.50;;;19.41;39.04
23619;BME280;18207;32.078;34.818;2023-02-17T00:15:45;102138.97;;;19.39;38.99
23619;BME280;18207;32.078;34.818;2023-02-17T00:18:16;102133.69;;;19.38;38.66
23619;BME280;18207;32.078;34.818;2023-02-17T00:20:46;102133.97;;;19.36;38.67
23619;BME280;18207;32.078;34.818;2023-02-17T00:23:17;102133.41;;;19.34;38.49
23619;BME280;18207;32.078;34.818;2023-02-17T00:25:49;102132.91;;;19.32;38.32
23619;BME280;18207;32.078;34.818;2023-02-17T00:28:20;102135.97;;;19.31;38.81
23619;BME280;18207;32.078;34.818;2023-02-17T00:30:52;102126.25;;;19.28;38.86
23619;BME280;18207;32.078;34.818;2023-02-17T00:33:23;102132.94;;;19.27;38.58
23619;BME280;18207;32.078;34.818;2023-02-17T00:35:53;102126.81;;;19.25;38.94
23619;BME280;18207;32.078;34.818;2023-02-17T00:38:24;102124.34;;;19.24;38.26
23619;BME280;18207;32.078;34.818;2023-02-17T00:40:54;102133.00;;;19.22;38.83
23619;BME280;18207;32.078;34.818;2023-02-17T00:43:25;102136.06;;;19.21;38.52
23619;BME280;18207;32.078;34.818;2023-02-17T00:45:58;102134.41;;;19.20;38.78
23619;BME280;18207;32.078;34.818;2023-02-17T00:48:31;102134.69;;;19.18;38.75
23619;BME280;18207;32.078;34.818;2023-02-17T00:51:03;102134.69;;;19.18;38.86
23619;BME280;18207;32.078;34.818;2023-02-17T00:53:33;102138.31;;;19.19;39.04
23619;BME280;18207;32.078;34.818;2023-02-17T00:56:04;102135.81;;;19.17;38.58
23619;BME280;18207;32.078;34.818;2023-02-17T00:58:36;102145.84;;;19.18;38.21
23619;BME280;18207;32.078;34.818;2023-02-17T01:01:11;102134.16;;;19.16;38.55
23619;BME280;18207;32.078;34.818;2023-02-17T01:03:42;102136.94;;;19.16;38.44
23619;BME280;18207;32.078;34.818;2023-02-17T01:06:22;102138.91;;;19.16;38.85
23619;BME280;18207;32.078;34.818;2023-02-17T01:08:53;102138.38;;;19.14;38.94
23619;BME280;18207;32.078;34.818;2023-02-17T01:11:26;102142.81;;;19.15;38.64
23619;BME280;18207;32.078;34.818;2023-02-17T01:14:00;102138.38;;;19.14;38.83
23619;BME280;18207;32.078;34.818;2023-02-17T01:16:37;102137.53;;;19.13;38.43
23619;BME280;18207;32.078;34.818;2023-02-17T01:19:12;102138.38;;;19.14;38.89
23619;BME280;18207;32.078;34.818;2023-02-17T01:21:43;102135.03;;;19.12;38.90
23619;BME280;18207;32.078;34.818;2023-02-17T01:24:14;102137.00;;;19.11;38.79
23619;BME280;18207;32.078;34.818;2023-02-17T01:26:45;102141.72;;;19.11;38.92
23619;BME280;18207;32.078;34.818;2023-02-17T01:29:18;102134.44;;;19.10;38.81
23619;BME280;18207;32.078;34.818;2023-02-17T01:31:50;102138.13;;;19.10;38.37
23619;BME280;18207;32.078;34.818;2023-02-17T01:34:21;102144.78;;;19.09;38.49
23619;BME280;18207;32.078;34.818;2023-02-17T01:36:52;102147.56;;;19.09;38.68
23619;BME280;18207;32.078;34.818;2023-02-17T01:39:22;102153.44;;;19.08;38.55
23619;BME280;18207;32.078;34.818;2023-02-17T01:41:53;102145.91;;;19.08;38.25
23619;BME280;18207;32.078;34.818;2023-02-17T01:44:25;102161.81;;;19.08;38.22
23619;BME280;18207;32.078;34.818;2023-02-17T01:46:57;102157.34;;;19.07;38.84
23619;BME280;18207;32.078;34.818;2023-02-17T01:49:33;102155.69;;;19.06;38.20
23619;BME280;18207;32.078;34.818;2023-02-17T01:52:10;102154.84;;;19.05;38.64
23619;BME280;18207;32.078;34.818;2023-02-17T01:54:46;102150.38;;;19.04;38.53
23619;BME280;18207;32.078;34.818;2023-02-17T01:57:24;102151.53;;;19.03;38.47
23619;BME280;18207;32.078;34.818;2023-02-17T01:59:57;102157.38;;;19.02;38.58
23619;BME280;18207;32.078;34.818;2023-02-17T02:02:30;102160.16;;;19.02;38.59
23619;BME280;18207;32.078;34.818;2023-02-17T02:05:02;102154.88;;;19.00;38.65
23619;BME280;18207;32.078;34.818;2023-02-17T02:07:40;102157.69;;;19.00;38.62
23619;BME280;18207;32.078;34.818;2023-02-17T02:10:15;102162.69;;;18.98;38.60
23619;BME280;18207;32.078;34.818;2023-02-17T02:12:46;102157.13;;;18.98;38.52
23619;BME280;18207;32.078;34.818;2023-02-17T02:15:21;102161.88;;;18.98;38.19
23619;BME280;18207;32.078;34.818;2023-02-17T02:18:36;102158.81;;;18.94;38.50
23619;BME280;18207;32.078;34.818;2023-02-17T02:21:43;102167.78;;;18.91;38.53
23619;BME280;18207;32.078;34.818;2023-02-17T02:24:32;102163.31;;;18.90;38.45
23619;BME280;18207;32.078;34.818;2023-02-17T02:27:39;102160.28;;;18.87;38.00
23619;BME280;18207;32.078;34.818;2023-02-17T02:30:49;102156.13;;;18.85;38.13
23619;BME280;18207;32.078;34.818;2023-02-17T02:33:33;102157.84;;;18.81;38.12
23619;BME280;18207;32.078;34.818;2023-02-17T02:36:14;102158.13;;;18.79;38.29
23619;BME280;18207;32.078;34.818;2023-02-17T02:38:53;102162.03;;;18.78;38.23
23619;BME280;18207;32.078;34.818;2023-02-17T02:41:33;102161.47;;;18.76;38.11
23619;BME280;18207;32.078;34.818;2023-02-17T02:44:06;102161.47;;;18.76;38.15
23619;BME280;18207;32.078;34.818;2023-02-17T02:46:37;102162.91;;;18.74;38.02
23619;BME280;18207;32.078;34.818;2023-02-17T02:49:11;102172.06;;;18.74;38.21
23619;BME280;18207;32.078;34.818;2023-02-17T02:51:52;102168.47;;;18.74;37.92
23619;BME280;18207;32.078;34.818;2023-02-17T02:54:38;102174.03;;;18.74;38.27
23619;BME280;18207;32.078;34.818;2023-02-17T02:57:33;102184.63;;;18.72;38.30
23619;BME280;18207;32.078;34.818;2023-02-17T03:00:16;102170.97;;;18.70;37.93
23619;BME280;18207;32.078;34.818;2023-02-17T03:02:56;102178.50;;;18.70;37.82
23619;BME280;18207;32.078;34.818;2023-02-17T03:05:36;102174.34;;;18.67;38.33
23619;BME280;18207;32.078;34.818;2023-02-17T03:08:16;102181.03;;;18.66;38.21
23619;BME280;18207;32.078;34.818;2023-02-17T03:10:52;102182.47;;;18.64;38.34
23619;BME280;18207;32.078;34.818;2023-02-17T03:13:23;102185.25;;;18.64;38.12
23619;BME280;18207;32.078;34.818;2023-02-17T03:15:54;102187.19;;;18.63;38.01
23619;BME280;18207;32.078;34.818;2023-02-17T03:18:25;102196.09;;;18.60;38.00
23619;BME280;18207;32.078;34.818;2023-02-17T03:21:05;102189.72;;;18.60;38.26
23619;BME280;18207;32.078;34.818;2023-02-17T03:23:37;102198.06;;;18.60;38.52
23619;BME280;18207;32.078;34.818;2023-02-17T03:26:07;102198.06;;;18.60;38.04
23619;BME280;18207;32.078;34.818;2023-02-17T03:28:38;102203.06;;;18.58;38.40
23619;BME280;18207;32.078;34.818;2023-02-17T03:31:09;102214.22;;;18.58;37.89
23619;BME280;18207;32.078;34.818;2023-02-17T03:33:39;102207.81;;;18.57;37.96
23619;BME280;18207;32.078;34.818;2023-02-17T03:36:12;102203.38;;;18.56;38.30
23619;BME280;18207;32.078;34.818;2023-02-17T03:38:42;102204.50;;;18.55;38.46
23619;BME280;18207;32.078;34.818;2023-02-17T03:41:14;102215.63;;;18.55;38.52
23619;BME280;18207;32.078;34.818;2023-02-17T03:43:44;102208.38;;;18.54;37.96
23619;BME280;18207;32.078;34.818;2023-02-17T03:46:16;102214.25;;;18.53;37.91
23619;BME280;18207;32.078;34.818;2023-02-17T03:48:47;102216.19;;;18.52;37.97
23619;BME280;18207;32.078;34.818;2023-02-17T03:51:23;102224.00;;;18.50;38.08
23619;BME280;18207;32.078;34.818;2023-02-17T03:53:54;102226.25;;;18.48;38.04
23619;BME280;18207;32.078;34.818;2023-02-17T03:56:24;102220.44;;;18.45;37.78
23619;BME280;18207;32.078;34.818;2023-02-17T03:58:55;102227.38;;;18.42;37.85
23619;BME280;18207;32.078;34.818;2023-02-17T04:01:26;102225.72;;;18.41;37.83
23619;BME280;18207;32.078;34.818;2023-02-17T04:03:56;102237.44;;;18.38;37.93
23619;BME280;18207;32.078;34.818;2023-02-17T04:06:30;102231.00;;;18.38;37.78
23619;BME280;18207;32.078;34.818;2023-02-17T04:09:00;102231.31;;;18.36;38.31
23619;BME280;18207;32.078;34.818;2023-02-17T04:11:32;102237.16;;;18.35;38.20
23619;BME280;18207;32.078;34.818;2023-02-17T04:14:02;102237.16;;;18.35;37.81
23619;BME280;18207;32.078;34.818;2023-02-17T04:16:33;102237.44;;;18.33;37.78
23619;BME280;18207;32.078;34.818;2023-02-17T04:19:06;102241.59;;;18.36;37.90
23619;BME280;18207;32.078;34.818;2023-02-17T04:21:40;102246.34;;;18.35;37.88
23619;BME280;18207;32.078;34.818;2023-02-17T04:24:10;102242.75;;;18.35;38.21
23619;BME280;18207;32.078;34.818;2023-02-17T04:26:41;102239.09;;;18.34;38.33
23619;BME280;18207;32.078;34.818;2023-02-17T04:29:12;102238.81;;;18.36;38.50
23619;BME280;18207;32.078;34.818;2023-02-17T04:31:42;102238.00;;;18.35;38.11
23619;BME280;18207;32.078;34.818;2023-02-17T04:34:12;102239.94;;;18.35;38.05
23619;BME280;18207;32.078;34.818;2023-02-17T04:36:45;102238.00;;;18.35;38.29
23619;BME280;18207;32.078;34.818;2023-02-17T04:39:16;102230.75;;;18.34;38.02
23619;BME280;18207;32.078;34.818;2023-02-17T04:41:47;102239.09;;;18.34;38.03
23619;BME280;18207;32.078;34.818;2023-02-17T04:44:17;102243.84;;;18.34;38.00
23619;BME280;18207;32.078;34.818;2023-02-17T04:46:48;102247.44;;;18.34;38.37
23619;BME280;18207;32.078;34.818;2023-02-17T04:49:19;102249.41;;;18.34;38.06
23619;BME280;18207;32.078;34.818;2023-02-17T04:51:51;102252.19;;;18.34;38.04
23619;BME280;18207;32.078;34.818;2023-02-17T04:54:22;102253.56;;;18.31;38.30
23619;BME280;18207;32.078;34.818;2023-02-17T04:56:53;102252.75;;;18.31;38.35
23619;BME280;18207;32.078;34.818;2023-02-17T04:59:23;102255.53;;;18.31;38.48
23619;BME280;18207;32.078;34.818;2023-02-17T05:01:53;102261.66;;;18.33;38.49
23619;BME280;18207;32.078;34.818;2023-02-17T05:04:24;102257.19;;;18.37;38.65
23619;BME280;18207;32.078;34.818;2023-02-17T05:06:57;102271.34;;;18.45;38.54
23619;BME280;18207;32.078;34.818;2023-02-17T05:09:28;102266.84;;;18.54;39.02
23619;BME280;18207;32.078;34.818;2023-02-17T05:11:58;102268.78;;;18.64;39.03
23619;BME280;18207;32.078;34.818;2023-02-17T05:14:30;102274.00;;;18.75;39.19
23619;BME280;18207;32.078;34.818;2023-02-17T05:17:01;102266.94;;;18.88;39.05
23619;BME280;18207;32.078;34.818;2023-02-17T05:19:32;102267.44;;;18.99;39.43
23619;BME280;18207;32.078;34.818;2023-02-17T05:22:05;102268.78;;;19.12;39.66
23619;BME280;18207;32.078;34.818;2023-02-17T05:24:36;102273.72;;;19.25;39.56
23619;BME280;18207;32.078;34.818;2023-02-17T05:27:06;102266.63;;;19.37;39.63
23619;BME280;18207;32.078;34.818;2023-02-17T05:29:37;102265.97;;;19.50;39.61
23619;BME280;18207;32.078;34.818;2023-02-17T05:32:07;102271.72;;;19.64;39.34
23619;BME280;18207;32.078;34.818;2023-02-17T05:34:38;102269.91;;;19.77;39.52
23619;BME280;18207;32.078;34.818;2023-02-17T05:37:12;102277.00;;;19.93;39.58
23619;BME280;18207;32.078;34.818;2023-02-17T05:39:43;102276.03;;;20.08;39.99
23619;BME280;18207;32.078;34.818;2023-02-17T05:42:14;102283.13;;;20.24;39.73
23619;BME280;18207;32.078;34.818;2023-02-17T05:44:48;102276.25;;;20.40;39.67
23619;BME280;18207;32.078;34.818;2023-02-17T05:47:18;102284.44;;;20.55;39.66
23619;BME280;18207;32.078;34.818;2023-02-17T05:49:49;102281.44;;;20.69;40.06
23619;BME280;18207;32.078;34.818;2023-02-17T05:52:21;102287.41;;;20.86;39.74
23619;BME280;18207;32.078;34.818;2023-02-17T05:54:52;102278.50;;;21.03;39.80
23619;BME280;18207;32.078;34.818;2023-02-17T05:57:23;102280.25;;;21.17;39.80
23619;BME280;18207;32.078;34.818;2023-02-17T05:59:55;102283.09;;;21.31;39.73
23619;BME280;18207;32.078;34.818;2023-02-17T06:02:25;102284.50;;;21.47;39.89
23619;BME280;18207;32.078;34.818;2023-02-17T06:04:55;102278.72;;;21.61;39.93
23619;BME280;18207;32.078;34.818;2023-02-17T06:07:27;102273.69;;;21.77;40.06
23619;BME280;18207;32.078;34.818;2023-02-17T06:09:57;102278.16;;;21.91;39.60
23619;BME280;18207;32.078;34.818;2023-02-17T06:12:27;102277.06;;;22.06;39.63
23619;BME280;18207;32.078;34.818;2023-02-17T06:14:58;102284.34;;;22.20;39.56
23619;BME280;18207;32.078;34.818;2023-02-17T06:17:29;102278.78;;;22.34;39.94
23619;BME280;18207;32.078;34.818;2023-02-17T06:20:00;102283.56;;;22.46;39.66
23619;BME280;18207;32.078;34.818;2023-02-17T06:22:32;102277.09;;;22.59;39.94
23619;BME280;18207;32.078;34.818;2023-02-17T06:25:04;102281.03;;;22.72;39.63
23619;BME280;18207;32.078;34.818;2023-02-17T06:27:34;102278.53;;;22.84;39.41
23619;BME280;18207;32.078;34.818;2023-02-17T06:30:06;102292.84;;;22.96;39.51
23619;BME280;18207;32.078;34.818;2023-02-17T06:32:37;102287.56;;;23.08;39.55
23619;BME280;18207;32.078;34.818;2023-02-17T06:35:07;102286.19;;;23.19;39.20
23619;BME280;18207;32.078;34.818;2023-02-17T06:37:40;102287.59;;;23.30;39.11
23619;BME280;18207;32.078;34.818;2023-02-17T06:40:12;102288.19;;;23.40;39.55
23619;BME280;18207;32.078;34.818;2023-02-17T06:42:43;102280.31;;;23.50;38.95
23619;BME280;18207;32.078;34.818;2023-02-17T06:45:14;102287.34;;;23.61;38.89
23619;BME280;18207;32.078;34.818;2023-02-17T06:47:45;102278.66;;;23.71;38.98
23619;BME280;18207;32.078;34.818;2023-02-17T06:50:16;102282.09;;;23.82;39.24
23619;BME280;18207;32.078;34.818;2023-02-17T06:52:48;102283.78;;;23.91;38.74
23619;BME280;18207;32.078;34.818;2023-02-17T06:55:18;102286.66;;;24.00;38.66
23619;BME280;18207;32.078;34.818;2023-02-17T06:57:49;102288.34;;;24.09;38.43
23619;BME280;18207;32.078;34.818;2023-02-17T07:00:21;102292.88;;;24.18;38.71
23619;BME280;18207;32.078;34.818;2023-02-17T07:02:52;102291.25;;;24.26;38.69
23619;BME280;18207;32.078;34.818;2023-02-17T07:05:23;102298.91;;;24.34;38.64
23619;BME280;18207;32.078;34.818;2023-02-17T07:07:57;102293.63;;;24.41;38.23
23619;BME280;18207;32.078;34.818;2023-02-17T07:10:27;102298.81;;;24.47;37.99
23619;BME280;18207;32.078;34.818;2023-02-17T07:12:58;102294.69;;;24.53;37.93
23619;BME280;18207;32.078;34.818;2023-02-17T07:15:29;102293.09;;;24.61;38.02
23619;BME280;18207;32.078;34.818;2023-02-17T07:18:01;102295.44;;;24.67;37.72
23619;BME280;18207;32.078;34.818;2023-02-17T07:20:31;102290.47;;;24.73;37.84
23619;BME280;18207;32.078;34.818;2023-02-17T07:23:03;102293.63;;;24.80;37.81
23619;BME280;18207;32.078;34.818;2023-02-17T07:25:34;102297.28;;;24.89;37.42
23619;BME280;18207;32.078;34.818;2023-02-17T07:28:05;102298.47;;;24.96;37.61
23619;BME280;18207;32.078;34.818;2023-02-17T07:30:37;102297.66;;;25.04;37.46
23619;BME280;18207;32.078;34.818;2023-02-17T07:33:08;102302.19;;;25.13;37.39
23619;BME280;18207;32.078;34.818;2023-02-17T07:35:41;102292.91;;;25.21;37.23
23619;BME280;18207;32.078;34.818;2023-02-17T07:38:14;102293.25;;;25.28;37.45
23619;BME280;18207;32.078;34.818;2023-02-17T07:40:45;102288.44;;;25.37;37.19
23619;BME280;18207;32.078;34.818;2023-02-17T07:43:15;102291.63;;;25.44;37.30
23619;BME280;18207;32.078;34.818;2023-02-17T07:45:45;102291.59;;;25.53;37.10
23619;BME280;18207;32.078;34.818;2023-02-17T07:48:16;102296.72;;;25.59;36.87
23619;BME280;18207;32.078;34.818;2023-02-17T07:50:47;102294.22;;;25.66;36.76
23619;BME280;18207;32.078;34.818;2023-02-17T07:53:20;102289.25;;;25.72;36.54
23619;BME280;18207;32.078;34.818;2023-02-17T07:55:50;102290.78;;;25.78;36.67
23619;BME280;18207;32.078;34.818;2023-02-17T07:58:21;102292.59;;;25.82;36.51
23619;BME280;18207;32.078;34.818;2023-02-17T08:00:52;102290.91;;;25.90;36.51
23619;BME280;18207;32.078;34.818;2023-02-17T08:03:22;102290.09;;;25.98;36.48
23619;BME280;18207;32.078;34.818;2023-02-17T08:05:52;102285.91;;;26.03;36.37
23619;BME280;18207;32.078;34.818;2023-02-17T08:08:25;102284.25;;;26.11;36.22
23619;BME280;18207;32.078;34.818;2023-02-17T08:11:14;102288.53;;;26.17;36.05
23619;BME280;18207;32.078;34.818;2023-02-17T08:14:03;102286.34;;;26.22;35.88
23619;BME280;18207;32.078;34.818;2023-02-17T08:16:34;102291.81;;;26.27;35.81
23619;BME280;18207;32.078;34.818;2023-02-17T08:19:04;102290.81;;;26.32;35.61
23619;BME280;18207;32.078;34.818;2023-02-17T08:21:35;102291.91;;;26.39;35.71
23619;BME280;18207;32.078;34.818;2023-02-17T08:24:07;102290.63;;;26.45;35.85
23619;BME280;18207;32.078;34.818;2023-02-17T08:26:38;102283.63;;;26.51;35.59
23619;BME280;18207;32.078;34.818;2023-02-17T08:29:09;102284.25;;;26.57;35.17
23619;BME280;18207;32.078;34.818;2023-02-17T08:31:41;102287.72;;;26.62;35.32
23619;BME280;18207;32.078;34.818;2023-02-17T08:34:12;102287.19;;;26.69;35.31
23619;BME280;18207;32.078;34.818;2023-02-17T08:36:43;102286.97;;;26.74;35.07
23619;BME280;18207;32.078;34.818;2023-02-17T08:39:17;102277.16;;;26.80;35.15
23619;BME280;18207;32.078;34.818;2023-02-17T08:41:48;102272.97;;;26.85;34.89
23619;BME280;18207;32.078;34.818;2023-02-17T08:44:20;102272.28;;;26.88;34.93
23619;BME280;18207;32.078;34.818;2023-02-17T08:46:52;102275.25;;;26.92;34.76
23619;BME280;18207;32.078;34.818;2023-02-17T08:49:25;102263.97;;;26.92;34.49
23619;BME280;18207;32.078;34.818;2023-02-17T08:51:59;102270.09;;;26.94;34.62
23619;BME280;18207;32.078;34.818;2023-02-17T08:54:31;102262.44;;;26.94;34.44
23619;BME280;18207;32.078;34.818;2023-02-17T08:57:03;102268.56;;;26.96;34.38
23619;BME280;18207;32.078;34.818;2023-02-17T08:59:34;102261.78;;;26.97;34.17
23619;BME280;18207;32.078;34.818;2023-02-17T09:02:05;102259.75;;;26.98;34.19
23619;BME280;18207;32.078;34.818;2023-02-17T09:04:36;102261.78;;;26.97;33.98
23619;BME280;18207;32.078;34.818;2023-02-17T09:07:10;102251.66;;;26.96;33.70
23619;BME280;18207;32.078;34.818;2023-02-17T09:09:43;102253.16;;;26.94;33.61
23619;BME280;18207;32.078;34.818;2023-02-17T09:12:13;102248.19;;;26.91;33.65
23619;BME280;18207;32.078;34.818;2023-02-17T09:14:43;102240.41;;;26.88;33.52
23619;BME280;18207;32.078;34.818;2023-02-17T09:17:14;102251.25;;;26.86;33.34
23619;BME280;18207;32.078;34.818;2023-02-17T09:19:45;102243.44;;;26.83;33.38
23619;BME280;18207;32.078;34.818;2023-02-17T09:22:16;102240.13;;;26.81;33.45
23619;BME280;18207;32.078;34.818;2023-02-17T09:25:00;102239.19;;;26.77;33.12
23619;BME280;18207;32.078;34.818;2023-02-17T09:27:31;102239.19;;;26.77;33.37
23619;BME280;18207;32.078;34.818;2023-02-17T09:30:02;102227.72;;;26.74;33.10
23619;BME280;18207;32.078;34.818;2023-02-17T09:32:34;102235.72;;;26.72;32.74
23619;BME280;18207;32.078;34.818;2023-02-17T09:35:05;102226.78;;;26.70;33.00
23619;BME280;18207;32.078;34.818;2023-02-17T09:37:36;102224.97;;;26.65;33.11
23619;BME280;18207;32.078;34.818;2023-02-17T09:40:17;102214.03;;;26.64;33.03
23619;BME280;18207;32.078;34.818;2023-02-17T09:42:50;102215.53;;;26.61;33.03
23619;BME280;18207;32.078;34.818;2023-02-17T09:45:26;102208.59;;;26.59;32.84
23619;BME280;18207;32.078;34.818;2023-02-17T09:48:03;102203.63;;;26.56;32.82
23619;BME280;18207;32.078;34.818;2023-02-17T09:50:43;102206.31;;;26.52;32.81
23619;BME280;18207;32.078;34.818;2023-02-17T09:53:24;102196.88;;;26.48;32.97
23619;BME280;18207;32.078;34.818;2023-02-17T09:56:04;102200.72;;;26.44;32.60
23619;BME280;18207;32.078;34.818;2023-02-17T09:58:43;102188.78;;;26.38;32.68
23619;BME280;18207;32.078;34.818;2023-02-17T10:01:20;102183.81;;;26.35;32.61
23619;BME280;18207;32.078;34.818;2023-02-17T10:03:56;102171.56;;;26.31;32.58
23619;BME280;18207;32.078;34.818;2023-02-17T10:06:35;102180.72;;;26.28;32.71
23619;BME280;18207;32.078;34.818;2023-02-17T10:09:24;102162.81;;;26.24;32.52
23619;BME280;18207;32.078;34.818;2023-02-17T10:12:02;102159.03;;;26.20;32.67
23619;BME280;18207;32.078;34.818;2023-02-17T10:14:39;102165.34;;;26.17;32.86
23619;BME280;18207;32.078;34.818;2023-02-17T10:17:21;102163.56;;;26.13;32.80
23619;BME280;18207;32.078;34.818;2023-02-17T10:20:03;102151.31;;;26.09;32.58
23619;BME280;18207;32.078;34.818;2023-02-17T10:22:35;102155.94;;;26.05;32.67
23619;BME280;18207;32.078;34.818;2023-02-17T10:25:17;102151.81;;;26.02;32.63
23619;BME280;18207;32.078;34.818;2023-02-17T10:27:56;102156.50;;;25.98;32.60
23619;BME280;18207;32.078;34.818;2023-02-17T10:30:48;102160.34;;;25.94;32.64
23619;BME280;18207;32.078;34.818;2023-02-17T10:33:30;102152.06;;;25.89;32.63
23619;BME280;18207;32.078;34.818;2023-02-17T10:36:14;102144.28;;;25.86;32.36
23619;BME280;18207;32.078;34.818;2023-02-17T10:38:51;102140.81;;;25.81;32.75
23619;BME280;18207;32.078;34.818;2023-02-17T10:41:26;102143.16;;;25.79;32.56
23619;BME280;18207;32.078;34.818;2023-02-17T10:44:04;102137.31;;;25.75;32.37
23619;BME280;18207;32.078;34.818;2023-02-17T10:46:39;102132.69;;;25.71;32.50
23619;BME280;18207;32.078;34.818;2023-02-17T10:49:20;102133.72;;;25.66;32.60
23619;BME280;18207;32.078;34.818;2023-02-17T10:51:52;102129.94;;;25.62;32.61
23619;BME280;18207;32.078;34.818;2023-02-17T10:54:33;102121.66;;;25.57;32.68
23619;BME280;18207;32.078;34.818;2023-02-17T10:57:11;102123.81;;;25.52;32.36
23619;BME280;18207;32.078;34.818;2023-02-17T10:59:46;102118.75;;;25.45;32.42
23619;BME280;18207;32.078;34.818;2023-02-17T11:02:20;102125.34;;;25.41;32.35
23619;BME280;18207;32.078;34.818;2023-02-17T11:04:52;102120.72;;;25.36;32.51
23619;BME280;18207;32.078;34.818;2023-02-17T11:07:32;102126.53;;;25.31;32.25
23619;BME280;18207;32.078;34.818;2023-02-17T11:10:21;102123.41;;;25.24;32.31
23619;BME280;18207;32.078;34.818;2023-02-17T11:12:52;102115.47;;;25.18;32.46
23619;BME280;18207;32.078;34.818;2023-02-17T11:15:29;102114.16;;;25.15;32.39
23619;BME280;18207;32.078;34.818;2023-02-17T11:18:08;102109.00;;;25.09;32.23
23619;BME280;18207;32.078;34.818;2023-02-17T11:20:40;102114.78;;;25.04;32.33
23619;BME280;18207;32.078;34.818;2023-02-17T11:23:23;102097.75;;;25.01;32.30
23619;BME280;18207;32.078;34.818;2023-02-17T11:26:06;102105.19;;;24.97;32.30
23619;BME280;18207;32.078;34.818;2023-02-17T11:28:37;102100.25;;;24.94;32.12
23619;BME280;18207;32.078;34.818;2023-02-17T11:31:26;102107.38;;;24.91;32.41
23619;BME280;18207;32.078;34.818;2023-02-17T11:33:57;102110.00;;;24.88;32.47
23619;BME280;18207;32.078;34.818;2023-02-17T11:36:31;102097.44;;;24.85;32.36
23619;BME280;18207;32.078;34.818;2023-02-17T11:39:17;102096.94;;;24.83;32.49
23619;BME280;18207;32.078;34.818;2023-02-17T11:41:49;102094.81;;;24.80;32.12
23619;BME280;18207;32.078;34.818;2023-02-17T11:44:24;102095.97;;;24.79;32.48
23619;BME280;18207;32.078;34.818;2023-02-17T11:47:08;102088.19;;;24.76;32.22
23619;BME280;18207;32.078;34.818;2023-02-17T11:50:25;102103.25;;;24.72;32.65
23619;BME280;18207;32.078;34.818;2023-02-17T11:53:22;102091.84;;;24.68;32.63
23619;BME280;18207;32.078;34.818;2023-02-17T11:56:15;102092.50;;;24.65;32.60
23619;BME280;18207;32.078;34.818;2023-02-17T11:59:11;102099.59;;;24.63;32.47
23619;BME280;18207;32.078;34.818;2023-02-17T12:02:10;102101.41;;;24.59;32.71
23619;BME280;18207;32.078;34.818;2023-02-17T12:04:59;102095.97;;;24.54;32.39
23619;BME280;18207;32.078;34.818;2023-02-17T12:08:04;102095.31;;;24.48;32.35
23619;BME280;18207;32.078;34.818;2023-02-17T12:10:57;102090.66;;;24.44;32.22
23619;BME280;18207;32.078;34.818;2023-02-17T12:13:45;102092.13;;;24.41;32.63
23619;BME280;18207;32.078;34.818;2023-02-17T12:16:40;102100.88;;;24.40;32.56
23619;BME280;18207;32.078;34.818;2023-02-17T12:19:39;102093.94;;;24.37;32.86
23619;BME280;18207;32.078;34.818;2023-02-17T12:22:18;102099.56;;;24.37;32.53
23619;BME280;18207;32.078;34.818;2023-02-17T12:25:30;102095.75;;;24.33;32.63
23619;BME280;18207;32.078;34.818;2023-02-17T12:28:44;102093.59;;;24.30;32.40
23619;BME280;18207;32.078;34.818;2023-02-17T12:31:38;102091.09;;;24.29;32.27
23619;BME280;18207;32.078;34.818;2023-02-17T12:34:26;102097.06;;;24.27;32.77
23619;BME280;18207;32.078;34.818;2023-02-17T12:37:00;102091.44;;;24.27;32.79
23619;BME280;18207;32.078;34.818;2023-02-17T12:39:40;102097.06;;;24.27;32.58
23619;BME280;18207;32.078;34.818;2023-02-17T12:42:17;102090.13;;;24.25;32.65
23619;BME280;18207;32.078;34.818;2023-02-17T12:44:53;102094.91;;;24.24;32.47
23619;BME280;18207;32.078;34.818;2023-02-17T12:47:31;102094.09;;;24.24;32.72
23619;BME280;18207;32.078;34.818;2023-02-17T12:50:21;102094.41;;;24.22;32.68
23619;BME280;18207;32.078;34.818;2023-02-17T12:53:00;102086.63;;;24.19;32.60
23619;BME280;18207;32.078;34.818;2023-02-17T12:55:40;102087.78;;;24.18;32.70
23619;BME280;18207;32.078;34.818;2023-02-17T12:58:20;102090.94;;;24.17;32.61
23619;BME280;18207;32.078;34.818;2023-02-17T13:00:58;102087.28;;;24.17;32.72
23619;BME280;18207;32.078;34.818;2023-02-17T13:03:35;102080.34;;;24.14;32.87
23619;BME280;18207;32.078;34.818;2023-02-17T13:06:22;102077.53;;;24.14;32.64
23619;BME280;18207;32.078;34.818;2023-02-17T13:08:59;102080.19;;;24.11;32.64
23619;BME280;18207;32.078;34.818;2023-02-17T13:11:35;102091.72;;;24.09;32.82
23619;BME280;18207;32.078;34.818;2023-02-17T13:14:11;102089.25;;;24.08;32.84
23619;BME280;18207;32.078;34.818;2023-02-17T13:16:43;102089.59;;;24.06;32.58
23619;BME280;18207;32.078;34.818;2023-02-17T13:19:15;102082.63;;;24.04;32.86
23619;BME280;18207;32.078;34.818;2023-02-17T13:21:59;102092.22;;;24.03;32.53